sensor_id;sensor_type;location;lat;lon;timestamp;pressure;altitude;pressure_sealevel;temperature;humidity
1029;BME280;503;48.120;11.488;2022-12-10T00:02:00;94011.75;;;5.49;63.90
1029;BME280;503;48.120;11.488;2022-12-10T00:04:26;94025.63;;;5.41;63.53
1029;BME280;503;48.120;11.488;2022-12-10T00:06:51;94023.50;;;5.43;63.53
1029;BME280;503;48.120;11.488;2022-12-10T00:09:17;94013.63;;;4.99;65.07
1029;BME280;503;48.120;11.488;2022-12-10T00:11:42;94016.41;;;4.52;66.62
1029;BME280;503;48.120;11.488;2022-12-10T00:14:08;94010.47;;;5.24;65.38
1029;BME280;503;48.120;11.488;2022-12-10T00:16:34;93922.97;;;4.63;65.31
1029;BME280;503;48.120;11.488;2022-12-10T00:19:00;94013.69;;;5.21;64.42
1029;BME280;503;48.120;11.488;2022-12-10T00:21:26;94009.59;;;5.51;64.67
1029;BME280;503;48.120;11.488;2022-12-10T00:23:52;93998.59;;;5.94;64.02
1029;BME280;503;48.120;11.488;2022-12-10T00:26:19;94000.41;;;4.62;65.76
1029;BME280;503;48.120;11.488;2022-12-10T00:28:45;94003.16;;;4.71;66.48
1029;BME280;503;48.120;11.488;2022-12-10T00:31:12;94000.91;;;4.37;67.57
1029;BME280;503;48.120;11.488;2022-12-10T00:33:38;94005.00;;;4.43;67.81
1029;BME280;503;48.120;11.488;2022-12-10T00:36:04;94010.91;;;4.90;66.45
1029;BME280;503;48.120;11.488;2022-12-10T00:38:30;94008.59;;;4.88;66.35
1029;BME280;503;48.120;11.488;2022-12-10T00:40:55;94004.34;;;5.37;65.80
1029;BME280;503;48.120;11.488;2022-12-10T00:43:20;94003.38;;;5.69;64.86
1029;BME280;503;48.120;11.488;2022-12-10T00:45:45;94002.09;;;5.89;63.76
1029;BME280;503;48.120;11.488;2022-12-10T00:48:10;94007.66;;;6.10;63.30
1029;BME280;503;48.120;11.488;2022-12-10T00:50:36;94007.31;;;6.03;63.49
1029;BME280;503;48.120;11.488;2022-12-10T00:53:01;94016.75;;;5.37;64.14
1029;BME280;503;48.120;11.488;2022-12-10T00:55:26;94009.50;;;5.06;64.99
1029;BME280;503;48.120;11.488;2022-12-10T00:57:51;94028.50;;;5.31;65.08
1029;BME280;503;48.120;11.488;2022-12-10T01:00:16;94028.53;;;5.53;64.50
1029;BME280;503;48.120;11.488;2022-12-10T01:02:42;94039.88;;;5.04;65.07
1029;BME280;503;48.120;11.488;2022-12-10T01:05:07;94034.78;;;5.21;65.54
1029;BME280;503;48.120;11.488;2022-12-10T01:07:32;94040.78;;;4.99;65.83
1029;BME280;503;48.120;11.488;2022-12-10T01:09:57;94042.47;;;5.31;64.74
1029;BME280;503;48.120;11.488;2022-12-10T01:12:23;94038.47;;;5.34;64.75
1029;BME280;503;48.120;11.488;2022-12-10T01:14:48;94034.72;;;4.99;65.13
1029;BME280;503;48.120;11.488;2022-12-10T01:17:13;94037.66;;;4.69;66.14
1029;BME280;503;48.120;11.488;2022-12-10T01:19:38;94033.56;;;4.63;66.68
1029;BME280;503;48.120;11.488;2022-12-10T01:22:04;94033.94;;;5.12;66.14
1029;BME280;503;48.120;11.488;2022-12-10T01:24:29;94029.38;;;4.62;67.35
1029;BME280;503;48.120;11.488;2022-12-10T01:26:55;94034.16;;;4.47;67.79
1029;BME280;503;48.120;11.488;2022-12-10T01:29:20;94026.81;;;4.85;67.74
1029;BME280;503;48.120;11.488;2022-12-10T01:31:45;94030.44;;;4.89;67.23
1029;BME280;503;48.120;11.488;2022-12-10T01:34:14;94037.38;;;4.43;68.04
1029;BME280;503;48.120;11.488;2022-12-10T01:36:41;94038.94;;;4.72;68.13
1029;BME280;503;48.120;11.488;2022-12-10T01:39:07;94046.06;;;4.72;68.07
1029;BME280;503;48.120;11.488;2022-12-10T01:41:37;94038.94;;;4.31;69.25
1029;BME280;503;48.120;11.488;2022-12-10T01:44:04;94043.44;;;4.72;68.56
1029;BME280;503;48.120;11.488;2022-12-10T01:46:51;94047.72;;;3.94;69.67
1029;BME280;503;48.120;11.488;2022-12-10T01:49:18;94052.41;;;3.97;70.16
1029;BME280;503;48.120;11.488;2022-12-10T01:51:44;94053.63;;;4.18;69.93
1029;BME280;503;48.120;11.488;2022-12-10T01:54:11;94057.44;;;3.79;70.71
1029;BME280;503;48.120;11.488;2022-12-10T01:56:42;94059.16;;;4.03;70.35
1029;BME280;503;48.120;11.488;2022-12-10T01:59:08;94051.16;;;4.08;70.32
1029;BME280;503;48.120;11.488;2022-12-10T02:09:23;94062.41;;;4.27;69.46
1029;BME280;503;48.120;11.488;2022-12-10T02:14:17;94053.19;;;4.57;69.59
1029;BME280;503;48.120;11.488;2022-12-10T02:16:51;94060.50;;;5.02;68.52
1029;BME280;503;48.120;11.488;2022-12-10T02:22:04;94057.69;;;5.34;68.82
1029;BME280;503;48.120;11.488;2022-12-10T02:24:30;94062.09;;;5.61;68.66
1029;BME280;503;48.120;11.488;2022-12-10T02:27:02;94059.31;;;5.80;68.78
1029;BME280;503;48.120;11.488;2022-12-10T02:29:28;94055.59;;;5.81;68.46
1029;BME280;503;48.120;11.488;2022-12-10T02:31:56;94056.47;;;5.04;67.17
1029;BME280;503;48.120;11.488;2022-12-10T02:34:24;94049.47;;;5.36;67.75
1029;BME280;503;48.120;11.488;2022-12-10T02:36:52;94047.31;;;4.33;68.09
1029;BME280;503;48.120;11.488;2022-12-10T02:39:20;94045.31;;;4.71;68.07
1029;BME280;503;48.120;11.488;2022-12-10T02:41:48;94041.78;;;4.62;68.96
1029;BME280;503;48.120;11.488;2022-12-10T02:44:14;94041.19;;;4.51;67.87
1029;BME280;503;48.120;11.488;2022-12-10T02:46:42;94048.78;;;5.08;68.25
1029;BME280;503;48.120;11.488;2022-12-10T02:49:08;94030.25;;;5.35;67.96
1029;BME280;503;48.120;11.488;2022-12-10T02:51:33;94032.72;;;5.54;68.35
1029;BME280;503;48.120;11.488;2022-12-10T02:54:00;94036.34;;;5.58;67.81
1029;BME280;503;48.120;11.488;2022-12-10T02:56:35;94032.84;;;5.71;67.40
1029;BME280;503;48.120;11.488;2022-12-10T02:59:16;94031.41;;;5.65;67.30
1029;BME280;503;48.120;11.488;2022-12-10T03:02:19;94034.94;;;5.61;67.45
1029;BME280;503;48.120;11.488;2022-12-10T03:07:02;94023.13;;;5.94;67.28
1029;BME280;503;48.120;11.488;2022-12-10T03:09:45;94024.22;;;5.80;67.01
1029;BME280;503;48.120;11.488;2022-12-10T03:12:22;94023.03;;;5.86;67.05
1029;BME280;503;48.120;11.488;2022-12-10T03:14:50;94015.09;;;5.86;66.16
1029;BME280;503;48.120;11.488;2022-12-10T03:17:17;94020.97;;;5.83;66.80
1029;BME280;503;48.120;11.488;2022-12-10T03:19:44;94017.09;;;5.80;66.58
1029;BME280;503;48.120;11.488;2022-12-10T03:22:11;94013.91;;;5.92;66.69
1029;BME280;503;48.120;11.488;2022-12-10T03:24:37;94016.13;;;5.98;66.44
1029;BME280;503;48.120;11.488;2022-12-10T03:27:05;94018.75;;;5.98;66.05
1029;BME280;503;48.120;11.488;2022-12-10T03:29:33;94014.44;;;6.03;65.29
1029;BME280;503;48.120;11.488;2022-12-10T03:32:00;94012.56;;;5.94;65.55
1029;BME280;503;48.120;11.488;2022-12-10T03:34:27;94006.78;;;5.92;65.27
1029;BME280;503;48.120;11.488;2022-12-10T03:36:53;94006.19;;;5.95;65.48
1029;BME280;503;48.120;11.488;2022-12-10T03:39:18;94006.72;;;6.06;65.36
1029;BME280;503;48.120;11.488;2022-12-10T03:41:43;94016.38;;;6.11;65.74
1029;BME280;503;48.120;11.488;2022-12-10T03:44:09;94008.91;;;6.13;65.41
1029;BME280;503;48.120;11.488;2022-12-10T03:46:34;94008.41;;;6.02;64.26
1029;BME280;503;48.120;11.488;2022-12-10T03:49:00;94010.97;;;5.93;64.10
1029;BME280;503;48.120;11.488;2022-12-10T03:51:25;94012.72;;;5.98;64.19
1029;BME280;503;48.120;11.488;2022-12-10T03:53:51;94009.34;;;6.06;64.30
1029;BME280;503;48.120;11.488;2022-12-10T03:56:16;94006.59;;;5.89;64.39
1029;BME280;503;48.120;11.488;2022-12-10T03:58:42;94004.72;;;5.89;64.58
1029;BME280;503;48.120;11.488;2022-12-10T04:01:07;94010.91;;;5.62;64.27
1029;BME280;503;48.120;11.488;2022-12-10T04:03:36;94006.34;;;5.77;64.42
1029;BME280;503;48.120;11.488;2022-12-10T04:06:02;94023.59;;;5.83;63.71
1029;BME280;503;48.120;11.488;2022-12-10T04:08:28;94024.47;;;5.92;64.59
1029;BME280;503;48.120;11.488;2022-12-10T04:10:53;94026.31;;;6.14;64.31
1029;BME280;503;48.120;11.488;2022-12-10T04:13:18;94042.69;;;6.24;63.92
1029;BME280;503;48.120;11.488;2022-12-10T04:16:02;94021.72;;;6.28;64.35
1029;BME280;503;48.120;11.488;2022-12-10T04:18:46;94034.91;;;5.74;63.81
1029;BME280;503;48.120;11.488;2022-12-10T04:21:11;94025.25;;;5.92;63.50
1029;BME280;503;48.120;11.488;2022-12-10T04:23:55;94021.00;;;6.05;63.42
1029;BME280;503;48.120;11.488;2022-12-10T04:26:39;94023.13;;;5.94;62.72
1029;BME280;503;48.120;11.488;2022-12-10T04:29:21;94023.03;;;5.86;62.94
1029;BME280;503;48.120;11.488;2022-12-10T04:31:46;94035.81;;;5.92;62.90
1029;BME280;503;48.120;11.488;2022-12-10T04:34:12;94038.03;;;5.99;63.49
1029;BME280;503;48.120;11.488;2022-12-10T04:36:37;94031.91;;;6.12;63.54
1029;BME280;503;48.120;11.488;2022-12-10T04:39:02;94029.63;;;6.19;63.01
1029;BME280;503;48.120;11.488;2022-12-10T04:41:28;94040.47;;;6.18;62.68
1029;BME280;503;48.120;11.488;2022-12-10T04:43:53;94043.34;;;6.08;62.19
1029;BME280;503;48.120;11.488;2022-12-10T04:46:18;94043.88;;;6.18;63.60
1029;BME280;503;48.120;11.488;2022-12-10T04:48:43;94048.44;;;6.27;63.52
1029;BME280;503;48.120;11.488;2022-12-10T04:51:08;94042.00;;;6.10;63.42
1029;BME280;503;48.120;11.488;2022-12-10T04:53:34;94033.97;;;6.24;63.90
1029;BME280;503;48.120;11.488;2022-12-10T04:55:59;94026.72;;;6.30;63.57
1029;BME280;503;48.120;11.488;2022-12-10T04:58:26;94025.44;;;6.27;62.33
1029;BME280;503;48.120;11.488;2022-12-10T05:01:00;94031.81;;;6.26;62.68
1029;BME280;503;48.120;11.488;2022-12-10T05:03:25;94035.03;;;6.14;62.51
1029;BME280;503;48.120;11.488;2022-12-10T05:05:50;94030.88;;;6.22;62.99
1029;BME280;503;48.120;11.488;2022-12-10T05:08:15;94033.88;;;6.38;63.87
1029;BME280;503;48.120;11.488;2022-12-10T05:10:40;93971.56;;;5.74;61.69
1029;BME280;503;48.120;11.488;2022-12-10T05:13:06;94032.66;;;6.35;62.39
1029;BME280;503;48.120;11.488;2022-12-10T05:15:31;94034.16;;;6.28;62.25
1029;BME280;503;48.120;11.488;2022-12-10T05:17:56;94030.88;;;6.22;63.60
1029;BME280;503;48.120;11.488;2022-12-10T05:20:22;94021.91;;;6.32;62.42
1029;BME280;503;48.120;11.488;2022-12-10T05:22:47;94020.91;;;6.19;62.43
1029;BME280;503;48.120;11.488;2022-12-10T05:25:30;94018.38;;;6.14;62.19
1029;BME280;503;48.120;11.488;2022-12-10T05:27:56;94014.44;;;6.03;62.39
1029;BME280;503;48.120;11.488;2022-12-10T05:30:21;94019.38;;;5.95;63.05
1029;BME280;503;48.120;11.488;2022-12-10T05:32:46;94019.19;;;6.14;63.46
1029;BME280;503;48.120;11.488;2022-12-10T05:35:11;94028.03;;;6.18;62.37
1029;BME280;503;48.120;11.488;2022-12-10T05:37:36;94035.28;;;6.35;63.67
1029;BME280;503;48.120;11.488;2022-12-10T05:40:02;94037.81;;;6.49;63.83
1029;BME280;503;48.120;11.488;2022-12-10T05:42:27;94040.19;;;6.50;63.56
1029;BME280;503;48.120;11.488;2022-12-10T05:44:53;94041.88;;;6.24;61.85
1029;BME280;503;48.120;11.488;2022-12-10T05:47:18;94039.88;;;6.21;62.86
1029;BME280;503;48.120;11.488;2022-12-10T05:49:43;94038.72;;;6.36;62.79
1029;BME280;503;48.120;11.488;2022-12-10T05:52:08;94033.44;;;6.36;62.63
1029;BME280;503;48.120;11.488;2022-12-10T05:54:34;94036.41;;;6.43;62.20
1029;BME280;503;48.120;11.488;2022-12-10T05:56:59;94038.44;;;6.46;62.84
1029;BME280;503;48.120;11.488;2022-12-10T05:59:24;94047.91;;;6.47;62.71
1029;BME280;503;48.120;11.488;2022-12-10T06:01:49;94048.56;;;6.53;62.81
1029;BME280;503;48.120;11.488;2022-12-10T06:04:15;94055.19;;;6.41;62.79
1029;BME280;503;48.120;11.488;2022-12-10T06:06:40;94060.47;;;5.52;62.86
1029;BME280;503;48.120;11.488;2022-12-10T06:09:06;94053.50;;;6.14;63.93
1029;BME280;503;48.120;11.488;2022-12-10T06:11:32;94066.22;;;5.90;63.72
1029;BME280;503;48.120;11.488;2022-12-10T06:13:57;94060.56;;;5.60;64.38
1029;BME280;503;48.120;11.488;2022-12-10T06:16:23;94058.69;;;5.83;63.78
1029;BME280;503;48.120;11.488;2022-12-10T06:18:49;94048.34;;;6.09;63.47
1029;BME280;503;48.120;11.488;2022-12-10T06:21:16;94045.03;;;6.04;62.68
1029;BME280;503;48.120;11.488;2022-12-10T06:23:41;94046.50;;;6.10;61.82
1029;BME280;503;48.120;11.488;2022-12-10T06:26:12;94045.63;;;6.23;62.23
1029;BME280;503;48.120;11.488;2022-12-10T06:28:37;94044.78;;;6.14;62.00
1029;BME280;503;48.120;11.488;2022-12-10T06:31:02;94044.44;;;6.07;63.00
1029;BME280;503;48.120;11.488;2022-12-10T06:33:28;94049.03;;;6.23;62.31
1029;BME280;503;48.120;11.488;2022-12-10T06:35:53;94050.25;;;6.17;61.79
1029;BME280;503;48.120;11.488;2022-12-10T06:38:18;94053.06;;;6.21;62.16
1029;BME280;503;48.120;11.488;2022-12-10T06:40:45;94047.53;;;6.31;62.31
1029;BME280;503;48.120;11.488;2022-12-10T06:43:11;94058.53;;;6.02;62.36
1029;BME280;503;48.120;11.488;2022-12-10T06:45:39;94061.81;;;5.99;62.39
1029;BME280;503;48.120;11.488;2022-12-10T06:48:04;94057.13;;;5.96;62.44
1029;BME280;503;48.120;11.488;2022-12-10T06:50:33;94058.28;;;5.90;62.47
1029;BME280;503;48.120;11.488;2022-12-10T06:52:58;94055.94;;;5.66;62.24
1029;BME280;503;48.120;11.488;2022-12-10T06:55:23;94057.44;;;5.58;63.71
1029;BME280;503;48.120;11.488;2022-12-10T06:57:52;94048.13;;;5.61;62.51
1029;BME280;503;48.120;11.488;2022-12-10T07:00:17;94049.66;;;5.76;62.96
1029;BME280;503;48.120;11.488;2022-12-10T07:02:42;94053.72;;;5.59;62.73
1029;BME280;503;48.120;11.488;2022-12-10T07:05:08;94053.97;;;5.71;62.30
1029;BME280;503;48.120;11.488;2022-12-10T07:07:34;94060.66;;;5.91;61.83
1029;BME280;503;48.120;11.488;2022-12-10T07:10:00;94055.97;;;6.11;62.42
1029;BME280;503;48.120;11.488;2022-12-10T07:12:25;94060.16;;;6.12;61.86
1029;BME280;503;48.120;11.488;2022-12-10T07:14:50;94059.84;;;6.36;61.31
1029;BME280;503;48.120;11.488;2022-12-10T07:17:15;94051.13;;;6.35;61.52
1029;BME280;503;48.120;11.488;2022-12-10T07:19:40;94059.72;;;6.41;61.44
1029;BME280;503;48.120;11.488;2022-12-10T07:22:06;94058.94;;;6.40;61.13
1029;BME280;503;48.120;11.488;2022-12-10T07:24:31;94069.75;;;6.30;59.74
1029;BME280;503;48.120;11.488;2022-12-10T07:26:56;94070.22;;;6.32;60.55
1029;BME280;503;48.120;11.488;2022-12-10T07:29:21;94071.69;;;6.47;60.15
1029;BME280;503;48.120;11.488;2022-12-10T07:31:47;94079.97;;;6.54;59.96
1029;BME280;503;48.120;11.488;2022-12-10T07:34:13;94076.59;;;6.62;61.00
1029;BME280;503;48.120;11.488;2022-12-10T07:36:38;94076.78;;;6.74;59.64
1029;BME280;503;48.120;11.488;2022-12-10T07:39:07;94078.69;;;6.83;60.13
1029;BME280;503;48.120;11.488;2022-12-10T07:41:32;94072.16;;;6.89;60.18
1029;BME280;503;48.120;11.488;2022-12-10T07:43:58;94077.06;;;6.64;58.29
1029;BME280;503;48.120;11.488;2022-12-10T07:46:24;94072.38;;;6.61;57.98
1029;BME280;503;48.120;11.488;2022-12-10T07:48:50;94072.91;;;6.72;58.65
1029;BME280;503;48.120;11.488;2022-12-10T07:51:15;94061.69;;;6.66;57.74
1029;BME280;503;48.120;11.488;2022-12-10T07:53:41;94068.97;;;6.69;58.31
1029;BME280;503;48.120;11.488;2022-12-10T07:56:07;94064.19;;;6.80;58.94
1029;BME280;503;48.120;11.488;2022-12-10T07:58:32;94072.94;;;6.89;59.33
1029;BME280;503;48.120;11.488;2022-12-10T08:00:58;94074.63;;;6.14;59.99
1029;BME280;503;48.120;11.488;2022-12-10T08:03:23;94078.22;;;5.96;58.70
1029;BME280;503;48.120;11.488;2022-12-10T08:05:49;94066.84;;;6.40;59.15
1029;BME280;503;48.120;11.488;2022-12-10T08:08:24;94071.16;;;6.67;60.04
1029;BME280;503;48.120;11.488;2022-12-10T08:10:50;94067.84;;;6.53;58.93
1029;BME280;503;48.120;11.488;2022-12-10T08:13:15;94068.53;;;6.67;58.50
1029;BME280;503;48.120;11.488;2022-12-10T08:15:40;94070.91;;;5.20;61.49
1029;BME280;503;48.120;11.488;2022-12-10T08:18:05;94074.03;;;5.59;61.39
1029;BME280;503;48.120;11.488;2022-12-10T08:20:30;94078.44;;;4.58;63.41
1029;BME280;503;48.120;11.488;2022-12-10T08:22:55;94088.53;;;3.91;65.34
1029;BME280;503;48.120;11.488;2022-12-10T08:25:21;94094.19;;;4.17;64.36
1029;BME280;503;48.120;11.488;2022-12-10T08:27:46;94086.94;;;4.83;63.44
1029;BME280;503;48.120;11.488;2022-12-10T08:30:11;94091.31;;;4.00;64.66
1029;BME280;503;48.120;11.488;2022-12-10T08:32:36;94096.69;;;5.10;63.14
1029;BME280;503;48.120;11.488;2022-12-10T08:35:02;94096.28;;;5.16;62.28
1029;BME280;503;48.120;11.488;2022-12-10T08:37:27;94095.19;;;3.51;67.04
1029;BME280;503;48.120;11.488;2022-12-10T08:39:52;94090.78;;;2.84;69.76
1029;BME280;503;48.120;11.488;2022-12-10T08:42:17;94087.78;;;2.72;70.88
1029;BME280;503;48.120;11.488;2022-12-10T08:44:42;94087.94;;;3.24;68.49
1029;BME280;503;48.120;11.488;2022-12-10T08:47:08;94101.09;;;3.24;68.88
1029;BME280;503;48.120;11.488;2022-12-10T08:49:33;94095.44;;;3.11;70.31
1029;BME280;503;48.120;11.488;2022-12-10T08:51:58;94096.81;;;3.65;68.29
1029;BME280;503;48.120;11.488;2022-12-10T08:54:23;94096.59;;;3.81;67.92
1029;BME280;503;48.120;11.488;2022-12-10T08:56:49;94094.72;;;4.60;65.91
1029;BME280;503;48.120;11.488;2022-12-10T08:59:14;94098.72;;;4.44;64.84
1029;BME280;503;48.120;11.488;2022-12-10T09:01:39;94097.59;;;4.78;64.00
1029;BME280;503;48.120;11.488;2022-12-10T09:04:04;94107.13;;;5.15;62.77
1029;BME280;503;48.120;11.488;2022-12-10T09:06:30;94106.72;;;5.21;63.03
1029;BME280;503;48.120;11.488;2022-12-10T09:08:55;94109.28;;;4.99;64.02
1029;BME280;503;48.120;11.488;2022-12-10T09:11:25;94104.78;;;4.58;64.70
1029;BME280;503;48.120;11.488;2022-12-10T09:13:51;94113.44;;;4.31;64.38
1029;BME280;503;48.120;11.488;2022-12-10T09:16:16;94108.50;;;5.12;63.48
1029;BME280;503;48.120;11.488;2022-12-10T09:18:42;94109.47;;;5.16;62.40
1029;BME280;503;48.120;11.488;2022-12-10T09:21:08;94110.03;;;4.44;63.23
1029;BME280;503;48.120;11.488;2022-12-10T09:23:34;94120.41;;;5.10;62.49
1029;BME280;503;48.120;11.488;2022-12-10T09:25:59;94115.50;;;5.81;61.73
1029;BME280;503;48.120;11.488;2022-12-10T09:28:24;94119.69;;;5.82;60.95
1029;BME280;503;48.120;11.488;2022-12-10T09:30:56;94123.88;;;5.96;60.04
1029;BME280;503;48.120;11.488;2022-12-10T09:33:22;94116.28;;;5.81;60.33
1029;BME280;503;48.120;11.488;2022-12-10T09:35:47;94119.06;;;4.71;62.63
1029;BME280;503;48.120;11.488;2022-12-10T09:38:12;94121.28;;;4.78;63.56
1029;BME280;503;48.120;11.488;2022-12-10T09:40:48;94122.75;;;5.11;63.41
1029;BME280;503;48.120;11.488;2022-12-10T09:43:23;94125.75;;;5.46;62.97
1029;BME280;503;48.120;11.488;2022-12-10T09:48:30;94120.53;;;6.27;60.83
1029;BME280;503;48.120;11.488;2022-12-10T09:53:28;94128.69;;;5.31;61.38
1029;BME280;503;48.120;11.488;2022-12-10T09:55:55;94130.03;;;5.42;61.86
1029;BME280;503;48.120;11.488;2022-12-10T09:58:22;94132.63;;;5.19;62.32
1029;BME280;503;48.120;11.488;2022-12-10T10:00:52;94128.22;;;4.74;63.14
1029;BME280;503;48.120;11.488;2022-12-10T10:03:20;94118.03;;;4.07;66.38
1029;BME280;503;48.120;11.488;2022-12-10T10:05:47;94125.06;;;4.11;66.43
1029;BME280;503;48.120;11.488;2022-12-10T10:10:45;94122.19;;;4.27;66.11
1029;BME280;503;48.120;11.488;2022-12-10T10:15:54;94108.56;;;4.38;65.17
1029;BME280;503;48.120;11.488;2022-12-10T10:18:31;94120.69;;;4.81;64.44
1029;BME280;503;48.120;11.488;2022-12-10T10:20:58;94113.66;;;4.62;64.86
1029;BME280;503;48.120;11.488;2022-12-10T10:23:24;94117.00;;;4.95;64.02
1029;BME280;503;48.120;11.488;2022-12-10T10:25:49;94117.97;;;5.00;63.91
1029;BME280;503;48.120;11.488;2022-12-10T10:28:19;94118.94;;;4.90;63.64
1029;BME280;503;48.120;11.488;2022-12-10T10:30:45;94114.94;;;4.51;64.76
1029;BME280;503;48.120;11.488;2022-12-10T10:33:11;94115.09;;;5.37;63.55
1029;BME280;503;48.120;11.488;2022-12-10T10:35:48;94118.69;;;4.45;65.12
1029;BME280;503;48.120;11.488;2022-12-10T10:38:15;94110.22;;;4.02;66.87
1029;BME280;503;48.120;11.488;2022-12-10T10:40:43;94109.97;;;4.77;65.40
1029;BME280;503;48.120;11.488;2022-12-10T10:43:20;94111.22;;;5.21;65.41
1029;BME280;503;48.120;11.488;2022-12-10T10:46:04;94106.03;;;5.30;64.89
1029;BME280;503;48.120;11.488;2022-12-10T10:48:31;94109.63;;;5.47;64.97
1029;BME280;503;48.120;11.488;2022-12-10T10:53:46;94096.84;;;5.41;66.17
1029;BME280;503;48.120;11.488;2022-12-10T10:56:13;94106.69;;;5.49;65.11
1029;BME280;503;48.120;11.488;2022-12-10T11:04:08;94099.22;;;5.65;66.43
1029;BME280;503;48.120;11.488;2022-12-10T11:06:33;94105.19;;;4.19;66.20
1029;BME280;503;48.120;11.488;2022-12-10T11:08:59;94099.81;;;4.10;68.32
1029;BME280;503;48.120;11.488;2022-12-10T11:11:34;94096.94;;;4.26;67.64
1029;BME280;503;48.120;11.488;2022-12-10T11:16:44;94101.66;;;3.39;70.11
1029;BME280;503;48.120;11.488;2022-12-10T11:19:17;94099.75;;;4.29;68.15
1029;BME280;503;48.120;11.488;2022-12-10T11:21:43;94096.78;;;5.18;67.04
1029;BME280;503;48.120;11.488;2022-12-10T11:24:12;94099.31;;;4.41;66.92
1029;BME280;503;48.120;11.488;2022-12-10T11:31:58;94084.72;;;4.16;68.92
1029;BME280;503;48.120;11.488;2022-12-10T11:39:46;94082.00;;;4.35;70.20
1029;BME280;503;48.120;11.488;2022-12-10T11:42:23;94086.06;;;4.74;69.22
1029;BME280;503;48.120;11.488;2022-12-10T11:44:53;94084.72;;;4.30;68.79
1029;BME280;503;48.120;11.488;2022-12-10T11:47:29;94080.78;;;5.15;68.06
1029;BME280;503;48.120;11.488;2022-12-10T11:50:20;94083.13;;;4.48;67.56
1029;BME280;503;48.120;11.488;2022-12-10T11:53:08;94092.88;;;4.47;68.29
1029;BME280;503;48.120;11.488;2022-12-10T12:03:34;94103.47;;;3.96;69.17
1029;BME280;503;48.120;11.488;2022-12-10T12:13:19;94111.78;;;2.84;72.26
1029;BME280;503;48.120;11.488;2022-12-10T12:15:49;94103.38;;;2.88;72.08
1029;BME280;503;48.120;11.488;2022-12-10T12:21:04;94105.69;;;2.89;72.28
1029;BME280;503;48.120;11.488;2022-12-10T12:23:52;94102.84;;;3.47;72.12
1029;BME280;503;48.120;11.488;2022-12-10T12:31:36;94103.78;;;3.75;71.80
1029;BME280;503;48.120;11.488;2022-12-10T12:34:04;94106.66;;;3.92;70.46
1029;BME280;503;48.120;11.488;2022-12-10T12:36:30;94117.94;;;4.12;70.01
1029;BME280;503;48.120;11.488;2022-12-10T12:39:02;94115.22;;;4.63;69.14
1029;BME280;503;48.120;11.488;2022-12-10T12:41:37;94114.84;;;4.24;69.01
1029;BME280;503;48.120;11.488;2022-12-10T12:46:41;94130.28;;;5.04;67.97
1029;BME280;503;48.120;11.488;2022-12-10T12:49:22;94129.50;;;3.97;68.76
1029;BME280;503;48.120;11.488;2022-12-10T12:51:58;94137.59;;;3.82;69.41
1029;BME280;503;48.120;11.488;2022-12-10T12:54:25;94136.59;;;3.40;69.95
1029;BME280;503;48.120;11.488;2022-12-10T12:56:53;94135.59;;;3.36;70.61
1029;BME280;503;48.120;11.488;2022-12-10T13:01:59;94142.41;;;4.12;70.12
1029;BME280;503;48.120;11.488;2022-12-10T13:04:26;94148.16;;;4.14;70.19
1029;BME280;503;48.120;11.488;2022-12-10T13:09:38;94153.16;;;2.98;72.06
1029;BME280;503;48.120;11.488;2022-12-10T13:17:27;94158.44;;;3.17;72.88
1029;BME280;503;48.120;11.488;2022-12-10T13:20:25;94158.63;;;3.63;72.26
1029;BME280;503;48.120;11.488;2022-12-10T13:22:41;94156.34;;;3.19;71.97
1029;BME280;503;48.120;11.488;2022-12-10T13:25:12;94160.91;;;3.51;71.69
1029;BME280;503;48.120;11.488;2022-12-10T13:27:37;94160.16;;;3.69;71.88
1029;BME280;503;48.120;11.488;2022-12-10T13:37:53;94188.25;;;3.74;71.63
1029;BME280;503;48.120;11.488;2022-12-10T13:48:49;94192.91;;;3.77;72.01
1029;BME280;503;48.120;11.488;2022-12-10T13:51:20;94192.22;;;3.90;71.47
1029;BME280;503;48.120;11.488;2022-12-10T13:53:55;94203.31;;;2.96;73.50
1029;BME280;503;48.120;11.488;2022-12-10T13:56:29;94205.84;;;3.73;72.54
1029;BME280;503;48.120;11.488;2022-12-10T14:01:42;94216.75;;;2.66;75.26
1029;BME280;503;48.120;11.488;2022-12-10T14:04:35;94215.63;;;2.77;74.73
1029;BME280;503;48.120;11.488;2022-12-10T14:07:08;94213.97;;;2.81;74.50
1029;BME280;503;48.120;11.488;2022-12-10T14:09:38;94230.75;;;3.14;73.63
1029;BME280;503;48.120;11.488;2022-12-10T14:12:07;94226.53;;;3.37;72.93
1029;BME280;503;48.120;11.488;2022-12-10T14:14:39;94236.63;;;3.54;72.15
1029;BME280;503;48.120;11.488;2022-12-10T14:17:15;94238.19;;;2.78;73.90
1029;BME280;503;48.120;11.488;2022-12-10T14:19:43;94241.31;;;2.51;75.32
1029;BME280;503;48.120;11.488;2022-12-10T14:22:14;94242.47;;;3.22;74.00
1029;BME280;503;48.120;11.488;2022-12-10T14:24:41;94242.38;;;2.79;74.06
1029;BME280;503;48.120;11.488;2022-12-10T14:27:16;94242.25;;;2.94;73.30
1029;BME280;503;48.120;11.488;2022-12-10T14:29:48;94250.25;;;2.45;74.86
1029;BME280;503;48.120;11.488;2022-12-10T14:32:14;94245.63;;;3.24;73.35
1029;BME280;503;48.120;11.488;2022-12-10T14:34:40;94253.63;;;2.50;74.00
1029;BME280;503;48.120;11.488;2022-12-10T14:37:06;94258.53;;;2.91;74.69
1029;BME280;503;48.120;11.488;2022-12-10T14:39:34;94203.03;;;2.11;75.12
1029;BME280;503;48.120;11.488;2022-12-10T14:42:00;94261.88;;;2.73;75.02
1029;BME280;503;48.120;11.488;2022-12-10T14:44:27;94269.41;;;2.45;75.06
1029;BME280;503;48.120;11.488;2022-12-10T14:46:52;94271.19;;;2.89;75.30
1029;BME280;503;48.120;11.488;2022-12-10T14:49:27;94269.91;;;3.10;73.80
1029;BME280;503;48.120;11.488;2022-12-10T14:51:52;94270.00;;;3.29;73.11
1029;BME280;503;48.120;11.488;2022-12-10T14:54:38;94279.59;;;2.57;74.26
1029;BME280;503;48.120;11.488;2022-12-10T14:57:24;94294.41;;;2.38;76.09
1029;BME280;503;48.120;11.488;2022-12-10T15:02:26;94293.19;;;2.25;75.69
1029;BME280;503;48.120;11.488;2022-12-10T15:04:52;94287.44;;;2.62;75.31
1029;BME280;503;48.120;11.488;2022-12-10T15:07:20;94288.66;;;2.70;74.36
1029;BME280;503;48.120;11.488;2022-12-10T15:09:47;94297.69;;;2.14;76.65
1029;BME280;503;48.120;11.488;2022-12-10T15:12:21;94294.13;;;2.78;75.18
1029;BME280;503;48.120;11.488;2022-12-10T15:14:48;94294.63;;;2.80;73.48
1029;BME280;503;48.120;11.488;2022-12-10T15:20:23;94315.78;;;2.21;76.56
1029;BME280;503;48.120;11.488;2022-12-10T15:22:49;94316.63;;;2.50;75.31
1029;BME280;503;48.120;11.488;2022-12-10T15:25:25;94316.81;;;2.64;74.51